sensor_id;sensor_type;location;lat;lon;timestamp;pressure;altitude;pressure_sealevel;temperature
53412;BMP280;39307;52.870;13.660;2023-01-15T00:02:10;99116.09;;;8.05
53412;BMP280;39307;52.870;13.660;2023-01-15T00:04:37;99117.75;;;8.07
53412;BMP280;39307;52.870;13.660;2023-01-15T00:07:03;99118.31;;;8.08
53412;BMP280;39307;52.870;13.660;2023-01-15T00:09:29;99112.09;;;8.09
53412;BMP280;39307;52.870;13.660;2023-01-15T00:11:55;99112.91;;;8.04
53412;BMP280;39307;52.870;13.660;2023-01-15T00:14:21;99109.69;;;8.08
53412;BMP280;39307;52.870;13.660;2023-01-15T00:16:51;99101.25;;;8.12
53412;BMP280;39307;52.870;13.660;2023-01-15T00:19:17;99098.69;;;8.06
53412;BMP280;39307;52.870;13.660;2023-01-15T00:21:43;99111.28;;;8.15
53412;BMP280;39307;52.870;13.660;2023-01-15T00:24:10;99105.47;;;8.20
53412;BMP280;39307;52.870;13.660;2023-01-15T00:26:36;99106.28;;;8.14
53412;BMP280;39307;52.870;13.660;2023-01-15T00:29:03;99106.66;;;8.17
53412;BMP280;39307;52.870;13.660;2023-01-15T00:31:31;99101.25;;;8.12
53412;BMP280;39307;52.870;13.660;2023-01-15T00:33:58;99099.44;;;8.19
53412;BMP280;39307;52.870;13.660;2023-01-15T00:36:24;99102.63;;;8.21
53412;BMP280;39307;52.870;13.660;2023-01-15T00:38:51;99100.44;;;8.18
53412;BMP280;39307;52.870;13.660;2023-01-15T00:41:17;99089.06;;;8.13
53412;BMP280;39307;52.870;13.660;2023-01-15T00:43:44;99083.22;;;8.17
53412;BMP280;39307;52.870;13.660;2023-01-15T00:46:10;99077.63;;;8.14
53412;BMP280;39307;52.870;13.660;2023-01-15T00:48:36;99072.59;;;8.12
53412;BMP280;39307;52.870;13.660;2023-01-15T00:51:03;99076.59;;;8.15
53412;BMP280;39307;52.870;13.660;2023-01-15T00:53:29;99071.59;;;8.20
53412;BMP280;39307;52.870;13.660;2023-01-15T00:55:56;99070.72;;;8.32
53412;BMP280;39307;52.870;13.660;2023-01-15T00:58:22;99066.34;;;8.26
53412;BMP280;39307;52.870;13.660;2023-01-15T01:00:56;99082.81;;;8.20
53412;BMP280;39307;52.870;13.660;2023-01-15T01:03:22;99079.59;;;8.18
53412;BMP280;39307;52.870;13.660;2023-01-15T01:05:49;99081.97;;;8.26
53412;BMP280;39307;52.870;13.660;2023-01-15T01:08:16;99081.56;;;8.29
53412;BMP280;39307;52.870;13.660;2023-01-15T01:10:42;99085.19;;;8.28
53412;BMP280;39307;52.870;13.660;2023-01-15T01:13:09;99071.91;;;8.36
53412;BMP280;39307;52.870;13.660;2023-01-15T01:15:36;99056.66;;;8.33
53412;BMP280;39307;52.870;13.660;2023-01-15T01:18:03;99060.25;;;8.38
53412;BMP280;39307;52.870;13.660;2023-01-15T01:20:30;99050.06;;;8.37
53412;BMP280;39307;52.870;13.660;2023-01-15T01:22:57;99043.59;;;8.39
53412;BMP280;39307;52.870;13.660;2023-01-15T01:25:23;99062.25;;;8.43
53412;BMP280;39307;52.870;13.660;2023-01-15T01:27:49;99058.63;;;8.44
53412;BMP280;39307;52.870;13.660;2023-01-15T01:30:16;99056.44;;;8.41
53412;BMP280;39307;52.870;13.660;2023-01-15T01:32:45;99062.78;;;8.51
53412;BMP280;39307;52.870;13.660;2023-01-15T01:35:11;99073.59;;;8.55
53412;BMP280;39307;52.870;13.660;2023-01-15T01:37:37;99067.41;;;8.56
53412;BMP280;39307;52.870;13.660;2023-01-15T01:40:04;99066.19;;;8.52
53412;BMP280;39307;52.870;13.660;2023-01-15T01:42:30;99067.84;;;8.46
53412;BMP280;39307;52.870;13.660;2023-01-15T01:45:03;99063.03;;;8.50
53412;BMP280;39307;52.870;13.660;2023-01-15T01:47:31;99060.16;;;8.58
53412;BMP280;39307;52.870;13.660;2023-01-15T01:50:06;99045.53;;;8.57
53412;BMP280;39307;52.870;13.660;2023-01-15T01:52:46;99032.53;;;8.50
53412;BMP280;39307;52.870;13.660;2023-01-15T01:55:17;99026.09;;;8.53
53412;BMP280;39307;52.870;13.660;2023-01-15T01:57:46;99022.88;;;8.51
53412;BMP280;39307;52.870;13.660;2023-01-15T02:00:13;99030.47;;;8.59
53412;BMP280;39307;52.870;13.660;2023-01-15T02:02:42;99045.28;;;8.64
53412;BMP280;39307;52.870;13.660;2023-01-15T02:05:12;99048.69;;;8.65
53412;BMP280;39307;52.870;13.660;2023-01-15T02:07:41;99057.91;;;8.67
53412;BMP280;39307;52.870;13.660;2023-01-15T02:10:16;99066.94;;;8.65
53412;BMP280;39307;52.870;13.660;2023-01-15T02:12:47;99053.69;;;8.66
53412;BMP280;39307;52.870;13.660;2023-01-15T02:15:18;99050.50;;;8.64
53412;BMP280;39307;52.870;13.660;2023-01-15T02:18:10;99073.16;;;8.64
53412;BMP280;39307;52.870;13.660;2023-01-15T02:20:49;99066.56;;;8.62
53412;BMP280;39307;52.870;13.660;2023-01-15T02:26:23;99080.38;;;8.68
53412;BMP280;39307;52.870;13.660;2023-01-15T02:28:54;99069.34;;;8.66
53412;BMP280;39307;52.870;13.660;2023-01-15T02:31:34;99082.75;;;8.70
53412;BMP280;39307;52.870;13.660;2023-01-15T02:36:34;99071.56;;;8.63
53412;BMP280;39307;52.870;13.660;2023-01-15T02:39:06;99074.53;;;8.66
53412;BMP280;39307;52.870;13.660;2023-01-15T02:41:42;99068.13;;;8.69
53412;BMP280;39307;52.870;13.660;2023-01-15T02:44:13;99058.31;;;8.64
53412;BMP280;39307;52.870;13.660;2023-01-15T02:46:42;99066.56;;;8.62
53412;BMP280;39307;52.870;13.660;2023-01-15T02:49:12;99054.91;;;8.64
53412;BMP280;39307;52.870;13.660;2023-01-15T02:51:46;99047.91;;;8.64
53412;BMP280;39307;52.870;13.660;2023-01-15T02:54:16;99067.31;;;8.68
53412;BMP280;39307;52.870;13.660;2023-01-15T02:56:47;99061.72;;;8.65
53412;BMP280;39307;52.870;13.660;2023-01-15T02:59:21;99067.75;;;8.65
53412;BMP280;39307;52.870;13.660;2023-01-15T03:02:02;99061.53;;;8.60
53412;BMP280;39307;52.870;13.660;2023-01-15T03:04:53;99045.09;;;8.60
53412;BMP280;39307;52.870;13.660;2023-01-15T03:07:24;99027.44;;;8.62
53412;BMP280;39307;52.870;13.660;2023-01-15T03:09:52;99034.91;;;8.58
53412;BMP280;39307;52.870;13.660;2023-01-15T03:12:40;99030.84;;;8.62
53412;BMP280;39307;52.870;13.660;2023-01-15T03:15:14;99038.88;;;8.61
53412;BMP280;39307;52.870;13.660;2023-01-15T03:17:52;99042.88;;;8.63
53412;BMP280;39307;52.870;13.660;2023-01-15T03:20:24;99034.84;;;8.64
53412;BMP280;39307;52.870;13.660;2023-01-15T03:22:58;99043.63;;;8.70
53412;BMP280;39307;52.870;13.660;2023-01-15T03:25:28;99041.66;;;8.65
53412;BMP280;39307;52.870;13.660;2023-01-15T03:28:00;99038.81;;;8.67
53412;BMP280;39307;52.870;13.660;2023-01-15T03:30:28;99055.88;;;8.69
53412;BMP280;39307;52.870;13.660;2023-01-15T03:32:55;99041.00;;;8.70
53412;BMP280;39307;52.870;13.660;2023-01-15T03:38:13;99030.47;;;8.59
53412;BMP280;39307;52.870;13.660;2023-01-15T03:40:49;99035.47;;;8.60
53412;BMP280;39307;52.870;13.660;2023-01-15T03:43:20;99024.00;;;8.67
53412;BMP280;39307;52.870;13.660;2023-01-15T03:45:51;99037.19;;;8.72
53412;BMP280;39307;52.870;13.660;2023-01-15T03:51:05;99043.19;;;8.73
53412;BMP280;39307;52.870;13.660;2023-01-15T03:53:44;99039.59;;;8.74
53412;BMP280;39307;52.870;13.660;2023-01-15T03:56:48;99053.63;;;8.79
53412;BMP280;39307;52.870;13.660;2023-01-15T03:59:25;99068.66;;;8.77
53412;BMP280;39307;52.870;13.660;2023-01-15T04:01:54;99075.78;;;8.94
53412;BMP280;39307;52.870;13.660;2023-01-15T04:04:23;99092.06;;;8.90
53412;BMP280;39307;52.870;13.660;2023-01-15T04:06:52;99093.75;;;8.78
53412;BMP280;39307;52.870;13.660;2023-01-15T04:09:20;99100.22;;;8.69
53412;BMP280;39307;52.870;13.660;2023-01-15T04:11:46;99102.91;;;8.57
53412;BMP280;39307;52.870;13.660;2023-01-15T04:14:13;99115.53;;;8.60
53412;BMP280;39307;52.870;13.660;2023-01-15T04:16:39;99118.19;;;8.47
53412;BMP280;39307;52.870;13.660;2023-01-15T04:19:06;99145.69;;;8.43
53412;BMP280;39307;52.870;13.660;2023-01-15T04:21:32;99136.91;;;8.31
53412;BMP280;39307;52.870;13.660;2023-01-15T04:23:58;99152.16;;;8.21
53412;BMP280;39307;52.870;13.660;2023-01-15T04:26:24;99149.56;;;8.21
53412;BMP280;39307;52.870;13.660;2023-01-15T04:28:50;99152.56;;;8.05
53412;BMP280;39307;52.870;13.660;2023-01-15T04:31:17;99150.78;;;8.00
53412;BMP280;39307;52.870;13.660;2023-01-15T04:33:43;99169.66;;;7.89
53412;BMP280;39307;52.870;13.660;2023-01-15T04:36:09;99163.66;;;7.88
53412;BMP280;39307;52.870;13.660;2023-01-15T04:38:36;99178.84;;;7.78
53412;BMP280;39307;52.870;13.660;2023-01-15T04:41:03;99178.84;;;7.78
53412;BMP280;39307;52.870;13.660;2023-01-15T04:43:29;99171.66;;;7.68
53412;BMP280;39307;52.870;13.660;2023-01-15T04:45:56;99166.47;;;7.68
53412;BMP280;39307;52.870;13.660;2023-01-15T04:48:22;99168.47;;;7.53
53412;BMP280;39307;52.870;13.660;2023-01-15T04:50:48;99184.88;;;7.53
53412;BMP280;39307;52.870;13.660;2023-01-15T04:53:14;99188.28;;;7.47
53412;BMP280;39307;52.870;13.660;2023-01-15T04:55:41;99185.06;;;7.39
53412;BMP280;39307;52.870;13.660;2023-01-15T04:58:07;99190.66;;;7.23
53412;BMP280;39307;52.870;13.660;2023-01-15T05:00:33;99196.66;;;7.24
53412;BMP280;39307;52.870;13.660;2023-01-15T05:02:59;99186.84;;;7.13
53412;BMP280;39307;52.870;13.660;2023-01-15T05:05:26;99192.84;;;7.14
53412;BMP280;39307;52.870;13.660;2023-01-15T05:07:52;99202.44;;;7.13
53412;BMP280;39307;52.870;13.660;2023-01-15T05:10:18;99200.63;;;7.07
53412;BMP280;39307;52.870;13.660;2023-01-15T05:12:45;99195.44;;;7.07
53412;BMP280;39307;52.870;13.660;2023-01-15T05:15:11;99194.19;;;6.97
53412;BMP280;39307;52.870;13.660;2023-01-15T05:17:37;99192.56;;;6.90
53412;BMP280;39307;52.870;13.660;2023-01-15T05:20:04;99194.34;;;6.83
53412;BMP280;39307;52.870;13.660;2023-01-15T05:22:30;99208.34;;;6.82
53412;BMP280;39307;52.870;13.660;2023-01-15T05:24:56;99203.13;;;6.82
53412;BMP280;39307;52.870;13.660;2023-01-15T05:27:23;99196.56;;;6.79
53412;BMP280;39307;52.870;13.660;2023-01-15T05:29:49;99206.34;;;6.77
53412;BMP280;39307;52.870;13.660;2023-01-15T05:32:15;99205.31;;;6.78
53412;BMP280;39307;52.870;13.660;2023-01-15T05:34:41;99217.09;;;6.68
53412;BMP280;39307;52.870;13.660;2023-01-15T05:37:08;99213.28;;;6.64
53412;BMP280;39307;52.870;13.660;2023-01-15T05:39:34;99211.66;;;6.63
53412;BMP280;39307;52.870;13.660;2023-01-15T05:42:00;99212.06;;;6.60
53412;BMP280;39307;52.870;13.660;2023-01-15T05:44:28;99209.41;;;6.47
53412;BMP280;39307;52.870;13.660;2023-01-15T05:46:57;99208.75;;;6.39
53412;BMP280;39307;52.870;13.660;2023-01-15T05:49:25;99208.75;;;6.39
53412;BMP280;39307;52.870;13.660;2023-01-15T05:51:52;99213.00;;;6.46
53412;BMP280;39307;52.870;13.660;2023-01-15T05:54:21;99213.00;;;6.46
53412;BMP280;39307;52.870;13.660;2023-01-15T05:56:48;99216.97;;;6.42
53412;BMP280;39307;52.870;13.660;2023-01-15T05:59:16;99212.38;;;6.44
53412;BMP280;39307;52.870;13.660;2023-01-15T06:01:43;99216.72;;;6.31
53412;BMP280;39307;52.870;13.660;2023-01-15T06:04:11;99218.34;;;6.38
53412;BMP280;39307;52.870;13.660;2023-01-15T06:06:37;99214.72;;;6.33
53412;BMP280;39307;52.870;13.660;2023-01-15T06:09:03;99207.50;;;6.29
53412;BMP280;39307;52.870;13.660;2023-01-15T06:11:29;99211.31;;;6.32
53412;BMP280;39307;52.870;13.660;2023-01-15T06:13:56;99197.25;;;6.21
53412;BMP280;39307;52.870;13.660;2023-01-15T06:16:22;99216.81;;;6.17
53412;BMP280;39307;52.870;13.660;2023-01-15T06:18:49;99219.97;;;6.12
53412;BMP280;39307;52.870;13.660;2023-01-15T06:21:15;99202.63;;;6.13
53412;BMP280;39307;52.870;13.660;2023-01-15T06:23:42;99202.75;;;6.05
53412;BMP280;39307;52.870;13.660;2023-01-15T06:26:16;99195.34;;;6.02
53412;BMP280;39307;52.870;13.660;2023-01-15T06:28:44;99207.28;;;5.97
53412;BMP280;39307;52.870;13.660;2023-01-15T06:31:12;99189.84;;;5.91
53412;BMP280;39307;52.870;13.660;2023-01-15T06:33:39;99187.84;;;5.86
53412;BMP280;39307;52.870;13.660;2023-01-15T06:36:07;99192.63;;;5.83
53412;BMP280;39307;52.870;13.660;2023-01-15T06:38:33;99196.19;;;5.82
53412;BMP280;39307;52.870;13.660;2023-01-15T06:41:01;99203.22;;;5.88
53412;BMP280;39307;52.870;13.660;2023-01-15T06:43:27;99210.84;;;5.89
53412;BMP280;39307;52.870;13.660;2023-01-15T06:45:53;99206.03;;;5.86
53412;BMP280;39307;52.870;13.660;2023-01-15T06:48:19;99207.63;;;5.87
53412;BMP280;39307;52.870;13.660;2023-01-15T06:50:46;99218.00;;;5.87
53412;BMP280;39307;52.870;13.660;2023-01-15T06:53:12;99212.22;;;5.85
53412;BMP280;39307;52.870;13.660;2023-01-15T06:55:38;99216.59;;;5.85
53412;BMP280;39307;52.870;13.660;2023-01-15T06:58:04;99218.53;;;5.76
53412;BMP280;39307;52.870;13.660;2023-01-15T07:00:31;99221.13;;;5.76
53412;BMP280;39307;52.870;13.660;2023-01-15T07:03:00;99222.03;;;5.69
53412;BMP280;39307;52.870;13.660;2023-01-15T07:05:27;99217.16;;;5.60
53412;BMP280;39307;52.870;13.660;2023-01-15T07:07:53;99214.56;;;5.60
53412;BMP280;39307;52.870;13.660;2023-01-15T07:10:19;99214.97;;;5.63
53412;BMP280;39307;52.870;13.660;2023-01-15T07:12:45;99217.34;;;5.58
53412;BMP280;39307;52.870;13.660;2023-01-15T07:15:11;99226.53;;;5.61
53412;BMP280;39307;52.870;13.660;2023-01-15T07:17:38;99244.91;;;5.59
53412;BMP280;39307;52.870;13.660;2023-01-15T07:20:04;99240.34;;;5.61
53412;BMP280;39307;52.870;13.660;2023-01-15T07:22:31;99244.53;;;5.62
53412;BMP280;39307;52.870;13.660;2023-01-15T07:24:57;99257.69;;;5.61
53412;BMP280;39307;52.870;13.660;2023-01-15T07:27:23;99244.66;;;5.54
53412;BMP280;39307;52.870;13.660;2023-01-15T07:29:49;99249.88;;;5.61
53412;BMP280;39307;52.870;13.660;2023-01-15T07:32:15;99249.34;;;5.65
53412;BMP280;39307;52.870;13.660;2023-01-15T07:34:41;99231.97;;;5.66
53412;BMP280;39307;52.870;13.660;2023-01-15T07:37:08;99238.13;;;5.58
53412;BMP280;39307;52.870;13.660;2023-01-15T07:39:34;99233.47;;;5.54
53412;BMP280;39307;52.870;13.660;2023-01-15T07:42:00;99235.22;;;5.47
53412;BMP280;39307;52.870;13.660;2023-01-15T07:44:26;99229.59;;;5.44
53412;BMP280;39307;52.870;13.660;2023-01-15T07:46:52;99243.16;;;5.45
53412;BMP280;39307;52.870;13.660;2023-01-15T07:49:18;99238.34;;;5.43
53412;BMP280;39307;52.870;13.660;2023-01-15T07:51:45;99246.38;;;5.47
53412;BMP280;39307;52.870;13.660;2023-01-15T07:54:11;99260.16;;;5.48
53412;BMP280;39307;52.870;13.660;2023-01-15T07:56:37;99252.00;;;5.51
53412;BMP280;39307;52.870;13.660;2023-01-15T07:59:03;99252.09;;;5.37
53412;BMP280;39307;52.870;13.660;2023-01-15T08:01:29;99249.50;;;5.37
53412;BMP280;39307;52.870;13.660;2023-01-15T08:03:55;99255.84;;;5.34
53412;BMP280;39307;52.870;13.660;2023-01-15T08:06:22;99243.66;;;5.35
53412;BMP280;39307;52.870;13.660;2023-01-15T08:08:48;99256.06;;;5.39
53412;BMP280;39307;52.870;13.660;2023-01-15T08:11:14;99262.84;;;5.34
53412;BMP280;39307;52.870;13.660;2023-01-15T08:13:40;99271.84;;;5.38
53412;BMP280;39307;52.870;13.660;2023-01-15T08:16:06;99273.00;;;5.35
53412;BMP280;39307;52.870;13.660;2023-01-15T08:18:32;99256.88;;;5.40
53412;BMP280;39307;52.870;13.660;2023-01-15T08:20:58;99272.00;;;5.36
53412;BMP280;39307;52.870;13.660;2023-01-15T08:23:24;99264.00;;;5.31
53412;BMP280;39307;52.870;13.660;2023-01-15T08:25:50;99250.47;;;5.36
53412;BMP280;39307;52.870;13.660;2023-01-15T08:28:17;99255.84;;;5.34
53412;BMP280;39307;52.870;13.660;2023-01-15T08:30:43;99253.47;;;5.39
53412;BMP280;39307;52.870;13.660;2023-01-15T08:33:09;99249.34;;;5.45
53412;BMP280;39307;52.870;13.660;2023-01-15T08:35:35;99243.53;;;5.43
53412;BMP280;39307;52.870;13.660;2023-01-15T08:38:05;99247.94;;;5.42
53412;BMP280;39307;52.870;13.660;2023-01-15T08:40:33;99249.50;;;5.37
53412;BMP280;39307;52.870;13.660;2023-01-15T08:42:59;99254.53;;;5.45
53412;BMP280;39307;52.870;13.660;2023-01-15T08:45:25;99255.28;;;5.59
53412;BMP280;39307;52.870;13.660;2023-01-15T08:47:55;99265.59;;;5.53
53412;BMP280;39307;52.870;13.660;2023-01-15T08:50:21;99260.00;;;5.49
53412;BMP280;39307;52.870;13.660;2023-01-15T08:52:47;99257.69;;;5.40
53412;BMP280;39307;52.870;13.660;2023-01-15T08:55:13;99265.72;;;5.45
53412;BMP280;39307;52.870;13.660;2023-01-15T08:57:39;99266.88;;;5.43
53412;BMP280;39307;52.870;13.660;2023-01-15T09:00:06;99278.69;;;5.45
53412;BMP280;39307;52.870;13.660;2023-01-15T09:02:32;99285.50;;;5.46
53412;BMP280;39307;52.870;13.660;2023-01-15T09:04:59;99272.03;;;5.57
53412;BMP280;39307;52.870;13.660;2023-01-15T09:07:25;99268.88;;;5.61
53412;BMP280;39307;52.870;13.660;2023-01-15T09:09:51;99269.91;;;5.67
53412;BMP280;39307;52.870;13.660;2023-01-15T09:12:17;99265.34;;;5.69
53412;BMP280;39307;52.870;13.660;2023-01-15T09:14:43;99275.81;;;5.75
53412;BMP280;39307;52.870;13.660;2023-01-15T09:17:09;99281.38;;;5.72
53412;BMP280;39307;52.870;13.660;2023-01-15T09:19:36;99273.59;;;5.72
53412;BMP280;39307;52.870;13.660;2023-01-15T09:22:02;99279.84;;;5.77
53412;BMP280;39307;52.870;13.660;2023-01-15T09:24:28;99276.88;;;5.80
53412;BMP280;39307;52.870;13.660;2023-01-15T09:26:54;99281.44;;;5.78
53412;BMP280;39307;52.870;13.660;2023-01-15T09:29:21;99283.50;;;5.83
53412;BMP280;39307;52.870;13.660;2023-01-15T09:31:47;99281.00;;;5.75
53412;BMP280;39307;52.870;13.660;2023-01-15T09:34:13;99290.81;;;5.73
53412;BMP280;39307;52.870;13.660;2023-01-15T09:36:39;99287.63;;;5.77
53412;BMP280;39307;52.870;13.660;2023-01-15T09:39:05;99273.47;;;5.80
53412;BMP280;39307;52.870;13.660;2023-01-15T09:47:17;99280.56;;;5.92
53412;BMP280;39307;52.870;13.660;2023-01-15T09:55:19;99291.44;;;6.02
53412;BMP280;39307;52.870;13.660;2023-01-15T09:57:50;99285.13;;;6.11
53412;BMP280;39307;52.870;13.660;2023-01-15T10:00:22;99289.03;;;6.01
53412;BMP280;39307;52.870;13.660;2023-01-15T10:03:14;99302.13;;;6.13
53412;BMP280;39307;52.870;13.660;2023-01-15T10:06:02;99296.13;;;6.13
53412;BMP280;39307;52.870;13.660;2023-01-15T10:08:36;99299.28;;;6.08
53412;BMP280;39307;52.870;13.660;2023-01-15T10:13:48;99295.22;;;6.27
53412;BMP280;39307;52.870;13.660;2023-01-15T10:16:26;99280.38;;;6.21
53412;BMP280;39307;52.870;13.660;2023-01-15T10:18:54;99273.84;;;6.25
53412;BMP280;39307;52.870;13.660;2023-01-15T10:24:15;99273.28;;;6.35
53412;BMP280;39307;52.870;13.660;2023-01-15T10:26:55;99278.31;;;6.37
53412;BMP280;39307;52.870;13.660;2023-01-15T10:40:54;99254.91;;;6.70
53412;BMP280;39307;52.870;13.660;2023-01-15T10:46:21;99268.66;;;6.58
53412;BMP280;39307;52.870;13.660;2023-01-15T10:49:01;99272.84;;;6.59
53412;BMP280;39307;52.870;13.660;2023-01-15T10:51:42;99272.91;;;6.72
53412;BMP280;39307;52.870;13.660;2023-01-15T10:57:27;99262.75;;;6.77
53412;BMP280;39307;52.870;13.660;2023-01-15T10:59:56;99278.97;;;6.85
53412;BMP280;39307;52.870;13.660;2023-01-15T11:02:31;99269.75;;;6.76
53412;BMP280;39307;52.870;13.660;2023-01-15T11:05:01;99268.00;;;6.90
53412;BMP280;39307;52.870;13.660;2023-01-15T11:07:48;99268.81;;;6.90
53412;BMP280;39307;52.870;13.660;2023-01-15T11:10:17;99271.00;;;6.93
53412;BMP280;39307;52.870;13.660;2023-01-15T11:15:40;99270.38;;;6.91
53412;BMP280;39307;52.870;13.660;2023-01-15T11:18:14;99275.00;;;6.89
53412;BMP280;39307;52.870;13.660;2023-01-15T11:20:47;99278.41;;;6.90
53412;BMP280;39307;52.870;13.660;2023-01-15T11:23:16;99274.78;;;6.84
53412;BMP280;39307;52.870;13.660;2023-01-15T11:25:55;99272.59;;;6.94
53412;BMP280;39307;52.870;13.660;2023-01-15T11:28:41;99270.66;;;7.02
53412;BMP280;39307;52.870;13.660;2023-01-15T11:31:10;99267.88;;;7.04
53412;BMP280;39307;52.870;13.660;2023-01-15T11:33:36;99271.66;;;7.01
53412;BMP280;39307;52.870;13.660;2023-01-15T11:36:06;99269.84;;;7.02
53412;BMP280;39307;52.870;13.660;2023-01-15T11:38:46;99263.06;;;7.01
53412;BMP280;39307;52.870;13.660;2023-01-15T11:41:27;99272.19;;;6.90
53412;BMP280;39307;52.870;13.660;2023-01-15T11:43:57;99272.41;;;6.89
53412;BMP280;39307;52.870;13.660;2023-01-15T11:46:29;99272.81;;;6.92
53412;BMP280;39307;52.870;13.660;2023-01-15T11:48:56;99264.22;;;6.92
53412;BMP280;39307;52.870;13.660;2023-01-15T11:51:22;99256.38;;;6.86
53412;BMP280;39307;52.870;13.660;2023-01-15T11:53:57;99250.22;;;6.99
53412;BMP280;39307;52.870;13.660;2023-01-15T11:56:26;99252.84;;;7.06
53412;BMP280;39307;52.870;13.660;2023-01-15T11:58:56;99256.88;;;7.08
53412;BMP280;39307;52.870;13.660;2023-01-15T12:01:34;99254.63;;;6.99
53412;BMP280;39307;52.870;13.660;2023-01-15T12:04:06;99253.84;;;6.98
53412;BMP280;39307;52.870;13.660;2023-01-15T12:06:36;99258.25;;;7.04
53412;BMP280;39307;52.870;13.660;2023-01-15T12:09:37;99255.84;;;7.09
53412;BMP280;39307;52.870;13.660;2023-01-15T12:18:07;99255.25;;;7.07
53412;BMP280;39307;52.870;13.660;2023-01-15T12:26:13;99258.44;;;7.09
53412;BMP280;39307;52.870;13.660;2023-01-15T12:31:26;99249.84;;;7.09
53412;BMP280;39307;52.870;13.660;2023-01-15T12:34:01;99254.84;;;7.04
53412;BMP280;39307;52.870;13.660;2023-01-15T12:36:40;99258.03;;;7.06
53412;BMP280;39307;52.870;13.660;2023-01-15T12:41:56;99249.88;;;7.15
53412;BMP280;39307;52.870;13.660;2023-01-15T12:47:08;99245.91;;;7.19
53412;BMP280;39307;52.870;13.660;2023-01-15T12:49:52;99234.25;;;7.15
53412;BMP280;39307;52.870;13.660;2023-01-15T12:52:30;99227.88;;;7.30
53412;BMP280;39307;52.870;13.660;2023-01-15T12:55:12;99229.28;;;7.26
53412;BMP280;39307;52.870;13.660;2023-01-15T12:57:46;99234.06;;;7.17
53412;BMP280;39307;52.870;13.660;2023-01-15T13:00:36;99233.06;;;7.18
53412;BMP280;39307;52.870;13.660;2023-01-15T13:03:27;99251.28;;;7.18
53412;BMP280;39307;52.870;13.660;2023-01-15T13:06:01;99253.72;;;7.19
53412;BMP280;39307;52.870;13.660;2023-01-15T13:08:32;99247.28;;;7.15
53412;BMP280;39307;52.870;13.660;2023-01-15T13:11:00;99245.09;;;7.19
53412;BMP280;39307;52.870;13.660;2023-01-15T13:13:37;99249.31;;;7.19
53412;BMP280;39307;52.870;13.660;2023-01-15T13:16:07;99249.47;;;7.12
53412;BMP280;39307;52.870;13.660;2023-01-15T13:21:16;99249.44;;;7.05
53412;BMP280;39307;52.870;13.660;2023-01-15T13:27:02;99247.88;;;7.11
53412;BMP280;39307;52.870;13.660;2023-01-15T13:35:13;99229.44;;;7.06
53412;BMP280;39307;52.870;13.660;2023-01-15T13:37:55;99230.81;;;6.95
53412;BMP280;39307;52.870;13.660;2023-01-15T13:40:31;99232.63;;;7.01
53412;BMP280;39307;52.870;13.660;2023-01-15T13:42:58;99232.03;;;7.06
53412;BMP280;39307;52.870;13.660;2023-01-15T13:45:41;99227.66;;;7.13
53412;BMP280;39307;52.870;13.660;2023-01-15T13:48:15;99242.41;;;6.99
53412;BMP280;39307;52.870;13.660;2023-01-15T13:50:57;99242.25;;;7.07
53412;BMP280;39307;52.870;13.660;2023-01-15T13:53:48;99241.22;;;6.95
53412;BMP280;39307;52.870;13.660;2023-01-15T13:56:29;99225.84;;;7.00
53412;BMP280;39307;52.870;13.660;2023-01-15T13:58:59;99230.22;;;7.00
53412;BMP280;39307;52.870;13.660;2023-01-15T14:01:33;99245.38;;;6.90
53412;BMP280;39307;52.870;13.660;2023-01-15T14:04:13;99250.03;;;6.94
53412;BMP280;39307;52.870;13.660;2023-01-15T14:06:45;99244.59;;;6.90
53412;BMP280;39307;52.870;13.660;2023-01-15T14:12:20;99262.66;;;7.04
53412;BMP280;39307;52.870;13.660;2023-01-15T14:17:46;99271.66;;;7.01
53412;BMP280;39307;52.870;13.660;2023-01-15T14:23:24;99272.66;;;7.00
53412;BMP280;39307;52.870;13.660;2023-01-15T14:29:04;99297.63;;;6.89
53412;BMP280;39307;52.870;13.660;2023-01-15T14:32:11;99294.63;;;6.91
53412;BMP280;39307;52.870;13.660;2023-01-15T14:34:40;99298.16;;;6.78
53412;BMP280;39307;52.870;13.660;2023-01-15T14:37:29;99308.31;;;6.73
53412;BMP280;39307;52.870;13.660;2023-01-15T14:39:59;99309.94;;;6.74
53412;BMP280;39307;52.870;13.660;2023-01-15T14:42:36;99317.31;;;6.70
53412;BMP280;39307;52.870;13.660;2023-01-15T14:47:46;99311.25;;;6.63
53412;BMP280;39307;52.870;13.660;2023-01-15T14:50:35;99308.31;;;6.73
53412;BMP280;39307;52.870;13.660;2023-01-15T14:55:55;99319.34;;;6.75
53412;BMP280;39307;52.870;13.660;2023-01-15T15:03:49;99332.09;;;6.70
53412;BMP280;39307;52.870;13.660;2023-01-15T15:06:17;99332.34;;;6.75
53412;BMP280;39307;52.870;13.660;2023-01-15T15:08:44;99322.50;;;6.64
53412;BMP280;39307;52.870;13.660;2023-01-15T15:11:43;99325.03;;;6.58
53412;BMP280;39307;52.870;13.660;2023-01-15T15:14:13;99326.44;;;6.60
53412;BMP280;39307;52.870;13.660;2023-01-15T15:16:46;99316.25;;;6.59
53412;BMP280;39307;52.870;13.660;2023-01-15T15:19:29;99309.59;;;6.50
53412;BMP280;39307;52.870;13.660;2023-01-15T15:22:04;99311.84;;;6.59
53412;BMP280;39307;52.870;13.660;2023-01-15T15:24:35;99309.69;;;6.35
53412;BMP280;39307;52.870;13.660;2023-01-15T15:27:22;99308.31;;;6.39
53412;BMP280;39307;52.870;13.660;2023-01-15T15:29:49;99317.69;;;6.34
53412;BMP280;39307;52.870;13.660;2023-01-15T15:32:22;99320.66;;;6.31
53412;BMP280;39307;52.870;13.660;2023-01-15T15:34:51;99327.03;;;6.29
53412;BMP280;39307;52.870;13.660;2023-01-15T15:37:22;99326.59;;;6.25
53412;BMP280;39307;52.870;13.660;2023-01-15T15:39:53;99318.06;;;6.31
53412;BMP280;39307;52.870;13.660;2023-01-15T15:42:29;99319.91;;;6.37
53412;BMP280;39307;52.870;13.660;2023-01-15T15:44:58;99317.00;;;6.26
53412;BMP280;39307;52.870;13.660;2023-01-15T15:47:25;99313.25;;;6.28
53412;BMP280;39307;52.870;13.660;2023-01-15T15:49:51;99298.56;;;6.21
53412;BMP280;39307;52.870;13.660;2023-01-15T15:52:21;99293.75;;;6.18
53412;BMP280;39307;52.870;13.660;2023-01-15T15:55:13;99307.75;;;6.17
53412;BMP280;39307;52.870;13.660;2023-01-15T15:57:40;99320.81;;;6.03
53412;BMP280;39307;52.870;13.660;2023-01-15T16:00:21;99305.47;;;6.07
53412;BMP280;39307;52.870;13.660;2023-01-15T16:02:49;99319.91;;;5.89
53412;BMP280;39307;52.870;13.660;2023-01-15T16:05:25;99311.53;;;5.94
53412;BMP280;39307;52.870;13.660;2023-01-15T16:07:52;99309.50;;;5.89
53412;BMP280;39307;52.870;13.660;2023-01-15T16:10:29;99307.53;;;5.91